createdAt,value
2023-05-11T00:01:19.278Z,64.83
2023-05-11T00:05:19.695Z,62.82
2023-05-11T00:08:46.507Z,64.09
2023-05-11T00:12:18.646Z,62.43
2023-05-11T00:15:57.726Z,61.09
2023-05-11T00:19:06.503Z,62.08
2023-05-11T00:22:16.035Z,66.11
2023-05-11T00:25:15.100Z,66.73
2023-05-11T00:28:42.588Z,66.64
2023-05-11T00:32:09.634Z,64.76
2023-05-11T00:35:35.957Z,63.88
2023-05-11T00:38:03.711Z,64.77
2023-05-11T00:40:32.001Z,67.52
2023-05-11T00:42:58.975Z,70.24
2023-05-11T00:45:26.767Z,67.33
2023-05-11T00:47:53.563Z,66.57
2023-05-11T00:50:22.800Z,67.18
2023-05-11T00:52:51.647Z,67.36
2023-05-11T00:55:20.935Z,67.90
2023-05-11T00:57:47.879Z,66.39
2023-05-11T01:00:18.831Z,68.63
2023-05-11T01:02:46.034Z,69.86
2023-05-11T01:05:13.002Z,69.33
2023-05-11T01:08:02.070Z,67.98
2023-05-11T01:10:40.732Z,71.14
2023-05-11T01:13:27.759Z,71.52
2023-05-11T01:15:56.501Z,71.23
2023-05-11T01:18:40.794Z,69.01
2023-05-11T01:21:14.632Z,69.04
2023-05-11T01:23:59.454Z,71.81
2023-05-11T01:26:39.748Z,71.38
2023-05-11T01:29:29.390Z,71.23
2023-05-11T01:31:59.344Z,69.83
2023-05-11T01:34:35.262Z,69.43
2023-05-11T01:37:16.917Z,68.92
2023-05-11T01:39:58.665Z,71.36
2023-05-11T01:42:35.735Z,73.45
2023-05-11T01:45:06.296Z,72.19
2023-05-11T01:47:34.793Z,70.91
2023-05-11T01:50:04.435Z,70.36
2023-05-11T01:52:32.825Z,70.31
2023-05-11T01:55:06.157Z,70.13
2023-05-11T01:57:36.890Z,70.06
2023-05-11T02:00:06.943Z,69.44
2023-05-11T02:02:40.766Z,69.19
2023-05-11T02:05:10.149Z,69.18
2023-05-11T02:07:42.549Z,69.19
2023-05-11T02:10:12.969Z,70.99
2023-05-11T02:12:46.191Z,73.40
2023-05-11T02:15:21.726Z,73.54
2023-05-11T02:17:56.687Z,71.94
2023-05-11T02:20:24.745Z,71.93
2023-05-11T02:22:55.088Z,70.69
2023-05-11T02:25:45.449Z,70.70
2023-05-11T02:28:16.968Z,71.28
2023-05-11T02:31:05.956Z,71.34
2023-05-11T02:33:46.479Z,71.04
2023-05-11T02:36:16.812Z,70.64
2023-05-11T02:38:50.473Z,70.60
2023-05-11T02:41:25.681Z,72.05
2023-05-11T02:43:55.375Z,74.74
2023-05-11T02:46:45.645Z,72.66
2023-05-11T02:49:18.175Z,76.93
2023-05-11T02:52:05.595Z,74.23
2023-05-11T02:54:37.526Z,76.93
2023-05-11T02:57:07.048Z,74.88
2023-05-11T02:59:36.879Z,73.77
2023-05-11T03:02:18.863Z,74.11
2023-05-11T03:04:49.854Z,74.14
2023-05-11T03:07:23.885Z,76.63
2023-05-11T03:09:52.002Z,80.42
2023-05-11T03:12:24.190Z,79.75
2023-05-11T03:14:52.628Z,77.73
2023-05-11T03:17:39.958Z,76.56
2023-05-11T03:20:11.327Z,76.38
2023-05-11T03:22:43.134Z,76.48
2023-05-11T03:25:15.230Z,77.80
2023-05-11T03:27:45.781Z,79.61
2023-05-11T03:30:19.742Z,77.63
2023-05-11T03:33:02.171Z,76.82
2023-05-11T03:35:35.512Z,76.20
2023-05-11T03:38:06.578Z,75.57
2023-05-11T03:40:37.984Z,77.17
2023-05-11T03:43:06.883Z,76.29
2023-05-11T03:45:42.112Z,75.88
2023-05-11T03:48:15.565Z,76.80
2023-05-11T03:50:43.488Z,77.10
2023-05-11T03:53:11.370Z,75.94
2023-05-11T03:55:38.340Z,75.23
2023-05-11T03:58:08.103Z,75.97
2023-05-11T04:00:42.846Z,78.65
2023-05-11T04:03:14.105Z,76.81
2023-05-11T04:05:50.344Z,75.70
2023-05-11T04:08:38.474Z,75.19
2023-05-11T04:11:07.425Z,76.25
2023-05-11T04:13:35.432Z,75.72
2023-05-11T04:16:02.756Z,75.00
2023-05-11T04:18:30.469Z,75.07
2023-05-11T04:20:57.945Z,75.51
2023-05-11T04:23:26.417Z,74.49
2023-05-11T04:25:55.382Z,74.87
2023-05-11T04:28:29.228Z,75.88
2023-05-11T04:30:59.246Z,74.66
2023-05-11T04:33:26.371Z,75.00
2023-05-11T04:36:07.789Z,74.44
2023-05-11T04:38:35.077Z,76.29
2023-05-11T04:41:04.546Z,76.70
2023-05-11T04:43:32.906Z,75.39
2023-05-11T04:46:01.722Z,75.11
2023-05-11T04:48:36.037Z,74.68
2023-05-11T04:51:12.037Z,76.02
2023-05-11T04:53:42.522Z,75.88
2023-05-11T04:56:12.744Z,75.24
2023-05-11T04:58:39.637Z,74.82
2023-05-11T05:01:07.263Z,74.47
2023-05-11T05:03:36.565Z,74.52
2023-05-11T05:06:05.894Z,73.93
2023-05-11T05:08:33.483Z,73.26
2023-05-11T05:11:02.804Z,72.69
2023-05-11T05:13:30.835Z,72.55
2023-05-11T05:15:57.803Z,71.95
2023-05-11T05:18:26.288Z,71.72
2023-05-11T05:32:21.955Z,70.60
2023-05-11T05:34:48.776Z,70.16
2023-05-11T05:37:26.094Z,69.91
2023-05-11T05:39:53.076Z,69.72
2023-05-11T05:42:23.078Z,69.11
2023-05-11T05:44:50.853Z,68.56
2023-05-11T05:47:20.894Z,68.41
2023-05-11T05:50:25.530Z,67.25
2023-05-11T05:53:34.349Z,67.12
2023-05-11T05:56:07.892Z,66.65
2023-05-11T05:58:40.733Z,65.70
2023-05-11T06:01:52.313Z,65.78
2023-05-11T06:04:54.682Z,65.13
2023-05-11T06:08:35.065Z,64.01
2023-05-11T06:11:25.250Z,61.97
2023-05-11T06:13:52.083Z,62.48
2023-05-11T06:16:19.651Z,62.53
2023-05-11T06:18:47.597Z,60.97
2023-05-11T06:21:16.228Z,60.89
2023-05-11T06:23:43.070Z,60.54
2023-05-11T06:26:11.188Z,58.86
2023-05-11T06:28:38.252Z,58.80
2023-05-11T06:31:15.808Z,58.96
2023-05-11T06:34:09.062Z,58.43
2023-05-11T06:36:38.607Z,57.78
2023-05-11T06:39:28.941Z,57.79
2023-05-11T06:42:06.782Z,56.84
2023-05-11T06:45:30.200Z,57.25
2023-05-11T06:48:00.016Z,57.47
2023-05-11T06:50:27.801Z,57.17
2023-05-11T06:53:06.282Z,56.63
2023-05-11T06:58:44.121Z,55.95
2023-05-11T07:04:54.005Z,55.42
2023-05-11T07:07:50.441Z,55.02
2023-05-11T07:12:15.242Z,55.19
2023-05-11T07:20:00.236Z,54.21
2023-05-11T07:23:29.708Z,53.69
2023-05-11T07:30:43.279Z,52.96
2023-05-11T07:33:29.567Z,51.74
2023-05-11T07:36:37.747Z,52.01
2023-05-11T07:39:47.326Z,51.01
2023-05-11T07:42:45.373Z,50.51
2023-05-11T07:46:15.304Z,50.79
2023-05-11T07:49:18.632Z,49.83
2023-05-11T07:52:16.843Z,49.14
2023-05-11T07:54:48.680Z,49.21
2023-05-11T07:57:25.610Z,49.05
2023-05-11T08:00:27.561Z,48.57
2023-05-11T08:45:23.064Z,42.27
2023-05-11T08:48:23.126Z,41.78
2023-05-11T08:51:08.075Z,42.24
2023-05-11T08:53:39.789Z,42.66
2023-05-11T08:56:12.808Z,42.84
2023-05-11T08:58:42.236Z,41.35
2023-05-11T09:01:18.620Z,40.17
2023-05-11T09:04:00.156Z,39.94
2023-05-11T09:06:46.955Z,39.26
2023-05-11T09:09:22.745Z,39.91
2023-05-11T09:13:08.078Z,38.92
2023-05-11T09:15:37.046Z,37.99
2023-05-11T09:18:15.772Z,38.58
2023-05-11T09:21:02.074Z,37.96
2023-05-11T09:23:48.485Z,38.50
2023-05-11T09:30:33.166Z,36.96
2023-05-11T09:30:45.305Z,38.54
2023-05-11T09:33:05.411Z,37.48
2023-05-11T09:35:42.292Z,38.07
2023-05-11T09:38:31.359Z,38.34
2023-05-11T09:41:06.158Z,36.56
2023-05-11T09:43:32.908Z,36.15
2023-05-11T09:46:06.500Z,35.73
2023-05-11T09:48:34.588Z,35.24
2023-05-11T09:51:05.340Z,34.75
2023-05-11T09:53:47.481Z,34.42
2023-05-11T09:56:15.101Z,34.79
2023-05-11T09:58:49.776Z,35.21
2023-05-11T10:01:18.761Z,34.54
2023-05-11T10:03:56.274Z,32.93
2023-05-11T10:06:27.963Z,32.80
2023-05-11T10:08:54.725Z,33.12
2023-05-11T10:11:24.770Z,33.79
2023-05-11T10:13:55.210Z,33.73
2023-05-11T10:16:33.792Z,34.21
2023-05-11T10:26:20.180Z,31.27
2023-05-11T10:28:47.989Z,30.52
2023-05-11T10:31:17.802Z,29.85
2023-05-11T10:33:56.579Z,30.41
2023-05-11T10:36:41.072Z,30.68
2023-05-11T10:39:14.382Z,30.50
2023-05-11T10:42:09.578Z,30.88
2023-05-11T10:45:03.861Z,30.13
2023-05-11T10:48:07.574Z,28.95
2023-05-11T10:51:09.559Z,28.02
2023-05-11T10:54:17.608Z,28.57
2023-05-11T10:57:24.398Z,29.00
2023-05-11T11:00:42.888Z,28.29
2023-05-11T11:03:15.712Z,27.00
2023-05-11T11:05:59.992Z,27.00
2023-05-11T11:08:30.262Z,27.41
2023-05-11T11:11:00.130Z,27.87
2023-05-11T11:13:28.915Z,28.71
2023-05-11T11:16:18.445Z,29.18
2023-05-11T11:18:48.281Z,29.13
2023-05-11T11:21:42.403Z,28.85
2023-05-11T11:24:29.431Z,28.58
2023-05-11T11:26:56.871Z,27.71
2023-05-11T11:29:24.192Z,28.07
2023-05-11T11:31:52.146Z,28.05
2023-05-11T11:34:33.260Z,27.92
2023-05-11T11:37:08.195Z,28.15
2023-05-11T11:39:50.843Z,28.12
2023-05-11T11:49:32.968Z,28.27
2023-05-11T11:52:30.435Z,27.87
2023-05-11T11:55:27.521Z,27.97
2023-05-11T11:59:11.185Z,27.99
2023-05-11T12:01:52.649Z,27.90
2023-05-11T12:04:51.208Z,28.04
2023-05-11T12:07:27.550Z,28.05
2023-05-11T12:10:11.019Z,26.87
2023-05-11T12:13:03.535Z,26.67
2023-05-11T12:16:40.310Z,27.32
2023-05-11T12:19:11.907Z,26.46
2023-05-11T12:21:54.860Z,26.39
2023-05-11T12:25:28.467Z,27.16
2023-05-11T12:28:00.029Z,27.52
2023-05-11T12:30:30.583Z,27.15
2023-05-11T12:33:02.716Z,26.28
2023-05-11T12:35:35.208Z,25.68
2023-05-11T12:38:02.715Z,25.80
2023-05-11T12:40:35.227Z,25.63
2023-05-11T12:43:30.481Z,25.04
2023-05-11T12:46:04.315Z,24.11
2023-05-11T12:48:36.675Z,22.98
2023-05-11T12:51:05.342Z,23.11
2023-05-11T12:53:43.438Z,23.46
2023-05-11T13:04:00.762Z,24.10
2023-05-11T13:06:52.199Z,24.62
2023-05-11T13:11:32.140Z,24.57
2023-05-11T13:14:37.806Z,23.11
2023-05-11T13:17:53.716Z,23.00
2023-05-11T13:22:08.236Z,22.63
2023-05-11T13:24:35.003Z,22.79
2023-05-11T13:27:29.336Z,22.84
2023-05-11T13:30:21.829Z,23.31
2023-05-11T13:34:00.568Z,23.21
2023-05-11T13:37:16.352Z,23.50
2023-05-11T13:41:18.920Z,23.99
2023-05-11T13:43:51.598Z,23.92
2023-05-11T13:46:42.901Z,22.88
2023-05-11T13:49:26.729Z,23.19
2023-05-11T13:54:24.609Z,22.78
2023-05-11T13:59:41.739Z,23.57
2023-05-11T14:03:00.629Z,23.42
2023-05-11T14:06:21.495Z,22.51
2023-05-11T14:07:47.212Z,22.96
2023-05-11T14:08:50.351Z,22.74
2023-05-11T14:11:17.815Z,23.01
2023-05-11T14:13:48.243Z,22.73
2023-05-11T14:16:17.589Z,22.78
2023-05-11T14:18:46.419Z,23.18
2023-05-11T14:21:22.007Z,23.14
2023-05-11T14:24:06.010Z,22.00
2023-05-11T14:26:37.151Z,21.46
2023-05-11T14:29:05.094Z,21.32
2023-05-11T14:31:34.081Z,21.26
2023-05-11T14:34:01.023Z,21.28
2023-05-11T14:36:27.972Z,21.70
2023-05-11T14:38:55.309Z,21.41
2023-05-11T14:41:23.940Z,22.22
2023-05-11T14:43:50.780Z,21.94
2023-05-11T14:46:17.473Z,20.87
2023-05-11T14:48:45.358Z,20.75
2023-05-11T14:51:11.868Z,20.71
2023-05-11T14:53:39.134Z,20.81
2023-05-11T14:56:08.154Z,20.90
2023-05-11T14:59:26.639Z,20.62
2023-05-11T15:01:53.999Z,20.01
2023-05-11T15:04:21.414Z,20.34
2023-05-11T15:06:48.141Z,20.73
2023-05-11T15:09:14.751Z,21.42
2023-05-11T15:11:41.298Z,22.12
2023-05-11T15:14:48.595Z,22.74
2023-05-11T15:17:15.196Z,23.43
2023-05-11T15:19:41.606Z,23.96
2023-05-11T15:22:11.176Z,24.25
2023-05-11T15:24:40.819Z,24.57
2023-05-11T15:27:12.692Z,23.72
2023-05-11T15:29:45.147Z,23.44
2023-05-11T15:32:18.099Z,23.15
2023-05-11T15:34:59.273Z,23.48
2023-05-11T15:38:08.490Z,23.78
2023-05-11T15:40:54.587Z,23.12
2023-05-11T15:43:30.604Z,22.31
2023-05-11T15:45:57.105Z,22.51
2023-05-11T15:48:23.526Z,22.79
2023-05-11T15:50:49.864Z,23.09
2023-05-11T15:53:17.390Z,23.29
2023-05-11T15:55:45.597Z,23.47
2023-05-11T15:58:12.147Z,23.57
2023-05-11T16:00:38.604Z,23.65
2023-05-11T16:03:08.500Z,24.06
2023-05-11T16:05:37.715Z,24.55
2023-05-11T16:08:06.041Z,24.81
2023-05-11T16:10:32.798Z,25.27
2023-05-11T16:12:59.431Z,25.79
2023-05-11T16:15:30.647Z,25.98
2023-05-11T16:17:57.717Z,26.20
2023-05-11T16:20:24.245Z,26.45
2023-05-11T16:22:50.654Z,26.56
2023-05-11T16:25:17.232Z,26.94
2023-05-11T16:27:44.056Z,27.24
2023-05-11T16:30:22.260Z,27.54
2023-05-11T16:32:51.698Z,27.82
2023-05-11T16:35:18.255Z,27.91
2023-05-11T16:37:45.996Z,28.28
2023-05-11T16:40:12.527Z,28.51
2023-05-11T16:42:39.027Z,28.75
2023-05-11T16:45:06.144Z,29.03
2023-05-11T16:47:32.605Z,29.63
2023-05-11T16:49:59.289Z,29.66
2023-05-11T16:52:25.672Z,29.66
2023-05-11T16:54:52.095Z,30.14
2023-05-11T16:57:18.534Z,30.38
2023-05-11T16:59:44.923Z,30.38
2023-05-11T17:02:11.451Z,30.48
2023-05-11T17:04:38.075Z,30.64
2023-05-11T17:07:04.783Z,31.20
2023-05-11T17:09:31.130Z,31.04
2023-05-11T17:11:57.533Z,30.70
2023-05-11T17:14:24.036Z,30.44
2023-05-11T17:16:50.430Z,29.97
2023-05-11T17:19:17.085Z,29.91
2023-05-11T17:21:44.279Z,29.77
2023-05-11T17:24:10.753Z,29.36
2023-05-11T17:26:47.236Z,29.28
2023-05-11T17:29:16.307Z,29.37
2023-05-11T17:31:45.584Z,29.36
2023-05-11T17:34:12.251Z,29.62
2023-05-11T17:36:38.870Z,29.88
2023-05-11T17:39:05.316Z,30.30
2023-05-11T17:41:31.682Z,30.39
2023-05-11T17:43:58.090Z,30.61
2023-05-11T17:46:24.547Z,30.87
2023-05-11T17:48:52.231Z,30.99
2023-05-11T17:51:19.816Z,31.34
2023-05-11T17:53:46.627Z,31.59
2023-05-11T17:56:13.354Z,31.87
2023-05-11T17:58:39.945Z,32.09
2023-05-11T18:01:08.343Z,32.33
2023-05-11T18:03:35.065Z,32.76
2023-05-11T18:06:01.961Z,33.10
2023-05-11T18:08:28.347Z,33.62
2023-05-11T18:10:54.901Z,33.61
2023-05-11T18:13:22.122Z,33.70
2023-05-11T18:15:48.599Z,34.61
2023-05-11T18:18:17.135Z,34.31
2023-05-11T18:20:45.719Z,34.79
2023-05-11T18:23:13.107Z,35.36
2023-05-11T18:25:39.586Z,35.50
2023-05-11T18:28:06.043Z,35.66
2023-05-11T18:30:33.700Z,35.94
2023-05-11T18:33:00.976Z,36.02
2023-05-11T18:35:27.471Z,36.09
2023-05-11T18:37:54.289Z,36.70
2023-05-11T18:40:21.430Z,36.87
2023-05-11T18:42:48.079Z,37.24
2023-05-11T18:45:14.635Z,37.71
2023-05-11T18:47:45.454Z,37.69
2023-05-11T18:50:12.001Z,38.36
2023-05-11T18:52:38.410Z,38.01
2023-05-11T18:55:05.292Z,38.79
2023-05-11T18:57:33.515Z,39.14
2023-05-11T19:00:00.332Z,39.28
2023-05-11T19:02:26.912Z,39.45
2023-05-11T19:04:53.316Z,39.87
2023-05-11T19:07:20.403Z,39.88
2023-05-11T19:09:47.255Z,40.25
2023-05-11T19:12:13.752Z,40.14
2023-05-11T19:14:40.390Z,40.30
2023-05-11T19:17:06.874Z,40.83
2023-05-11T19:19:33.468Z,40.74
2023-05-11T19:22:00.040Z,40.86
2023-05-11T19:24:26.876Z,41.35
2023-05-11T19:27:06.642Z,41.26
2023-05-11T19:29:34.519Z,41.35
2023-05-11T19:32:00.988Z,41.90
2023-05-11T19:34:27.775Z,42.19
2023-05-11T19:36:54.173Z,42.15
2023-05-11T19:39:20.568Z,42.02
2023-05-11T19:41:46.984Z,42.21
2023-05-11T19:44:13.764Z,42.21
2023-05-11T19:46:51.451Z,42.93
2023-05-11T19:49:18.000Z,42.95
2023-05-11T19:51:44.523Z,43.29
2023-05-11T19:54:11.332Z,43.02
2023-05-11T19:56:38.595Z,43.53
2023-05-11T19:59:05.042Z,43.14
2023-05-11T20:01:31.641Z,43.40
2023-05-11T20:03:58.920Z,43.77
2023-05-11T20:06:25.668Z,44.15
2023-05-11T20:08:52.327Z,44.09
2023-05-11T20:11:18.856Z,44.12
2023-05-11T20:13:47.007Z,44.30
2023-05-11T20:16:13.538Z,44.81
2023-05-11T20:18:40.127Z,44.62
2023-05-11T20:21:06.578Z,45.04
2023-05-11T20:23:33.877Z,45.06
2023-05-11T20:26:02.269Z,45.25
2023-05-11T20:28:28.720Z,45.32
2023-05-11T20:30:55.610Z,45.64
2023-05-11T20:35:53.373Z,46.69
2023-05-11T20:38:20.424Z,46.17
2023-05-11T20:40:46.917Z,45.97
2023-05-11T20:43:14.733Z,46.88
2023-05-11T20:45:43.806Z,46.85
2023-05-11T20:48:10.372Z,46.54
2023-05-11T20:50:38.574Z,46.57
2023-05-11T20:53:05.385Z,46.70
2023-05-11T20:55:31.820Z,46.99
2023-05-11T20:57:58.398Z,47.76
2023-05-11T21:00:25.205Z,48.06
2023-05-11T21:02:52.018Z,48.38
2023-05-11T21:05:18.803Z,48.65
2023-05-11T21:07:45.351Z,48.85
2023-05-11T21:10:12.105Z,49.02
2023-05-11T21:12:38.712Z,49.36
2023-05-11T21:15:06.674Z,49.35
2023-05-11T21:17:33.561Z,49.44
2023-05-11T21:20:02.436Z,49.94
2023-05-11T21:22:28.910Z,50.01
2023-05-11T21:24:55.384Z,50.09
2023-05-11T21:27:21.931Z,50.69
2023-05-11T21:29:56.096Z,50.76
2023-05-11T21:32:23.365Z,51.02
2023-05-11T21:34:50.218Z,51.05
2023-05-11T21:37:19.514Z,51.68
2023-05-11T21:39:47.458Z,51.42
2023-05-11T21:42:13.991Z,51.80
2023-05-11T21:44:40.476Z,52.03
2023-05-11T21:47:07.057Z,52.08
2023-05-11T21:49:35.509Z,51.94
2023-05-11T21:52:02.292Z,52.11
2023-05-11T21:54:28.673Z,52.29
2023-05-11T21:56:55.184Z,52.51
2023-05-11T21:59:25.850Z,52.25
2023-05-11T22:01:53.948Z,51.95
2023-05-11T22:04:20.361Z,52.38
2023-05-11T22:06:46.828Z,52.44
2023-05-11T22:09:13.317Z,52.95
2023-05-11T22:11:39.856Z,52.89
2023-05-11T22:14:06.394Z,52.61
2023-05-11T22:16:32.870Z,52.57
2023-05-11T22:18:59.450Z,53.03
2023-05-11T22:21:27.230Z,52.75
2023-05-11T22:23:53.615Z,53.21
2023-05-11T22:26:20.174Z,52.60
2023-05-11T22:28:47.012Z,52.80
2023-05-11T22:31:13.450Z,52.59
2023-05-11T22:33:40.395Z,52.67
2023-05-11T22:36:07.749Z,52.85
2023-05-11T22:38:36.750Z,52.89
2023-05-11T22:41:04.441Z,52.58
2023-05-11T22:43:31.171Z,52.34
2023-05-11T22:45:57.655Z,52.48
2023-05-11T22:48:24.193Z,52.01
2023-05-11T22:50:50.653Z,52.75
2023-05-11T22:53:19.464Z,52.51
2023-05-11T22:55:46.744Z,52.26
2023-05-11T22:58:13.283Z,52.00
2023-05-11T23:00:39.838Z,52.17
2023-05-11T23:03:07.422Z,52.14
2023-05-11T23:05:34.133Z,52.53
2023-05-11T23:08:02.349Z,53.47
2023-05-11T23:10:29.002Z,53.26
2023-05-11T23:12:55.701Z,53.44
2023-05-11T23:15:22.093Z,53.76
2023-05-11T23:17:48.647Z,54.09
2023-05-11T23:20:15.817Z,54.28
2023-05-11T23:22:42.297Z,53.99
2023-05-11T23:25:09.681Z,54.12
2023-05-11T23:27:36.096Z,54.35
2023-05-11T23:30:03.243Z,53.72
2023-05-11T23:32:29.826Z,53.91
2023-05-11T23:34:56.279Z,54.09
2023-05-11T23:37:23.069Z,54.05
2023-05-11T23:39:49.874Z,54.12
2023-05-11T23:42:16.445Z,54.24
2023-05-11T23:44:43.412Z,54.22
2023-05-11T23:47:09.954Z,54.67
2023-05-11T23:49:36.805Z,54.69
2023-05-11T23:52:04.102Z,54.87
2023-05-11T23:54:30.501Z,54.44
2023-05-11T23:56:56.849Z,55.48
2023-05-11T23:59:23.201Z,55.68
